createdAt,value
2018-03-27T00:00:42.145Z,36.80
2018-03-27T00:01:42.131Z,38.10
2018-03-27T00:02:42.123Z,38.90
2018-03-27T00:03:42.105Z,38.50
2018-03-27T00:04:42.096Z,38.00
2018-03-27T00:05:42.084Z,38.40
2018-03-27T00:06:42.068Z,38.90
2018-03-27T00:07:42.053Z,36.20
2018-03-27T00:08:42.046Z,38.30
2018-03-27T00:09:42.027Z,38.30
2018-03-27T00:10:42.012Z,37.70
2018-03-27T00:11:42.002Z,38.80
2018-03-27T00:12:41.997Z,37.90
2018-03-27T00:13:41.976Z,38.70
2018-03-27T00:14:41.975Z,37.90
2018-03-27T00:15:41.946Z,38.70
2018-03-27T00:16:41.940Z,38.20
2018-03-27T00:17:41.926Z,38.70
2018-03-27T00:18:41.918Z,39.60
2018-03-27T00:19:41.897Z,39.10
2018-03-27T00:20:41.880Z,39.30
2018-03-27T00:21:41.867Z,37.10
2018-03-27T00:22:41.858Z,35.80
2018-03-27T00:23:41.841Z,38.70
2018-03-27T00:24:41.827Z,37.80
2018-03-27T00:25:41.814Z,38.30
2018-03-27T00:26:41.801Z,39.10
2018-03-27T00:27:41.787Z,37.40
2018-03-27T00:28:41.775Z,39.80
2018-03-27T00:29:41.760Z,40.40
2018-03-27T00:30:41.751Z,40.10
2018-03-27T00:31:41.732Z,41.10
2018-03-27T00:32:41.718Z,39.80
2018-03-27T00:33:41.710Z,38.60
2018-03-27T00:34:41.699Z,38.40
2018-03-27T00:35:41.681Z,38.20
2018-03-27T00:36:41.665Z,36.50
2018-03-27T00:37:41.653Z,37.50
2018-03-27T00:38:41.645Z,37.30
2018-03-27T00:39:41.624Z,37.40
2018-03-27T00:40:41.609Z,41.40
2018-03-27T00:41:41.596Z,42.20
2018-03-27T00:42:41.589Z,41.30
2018-03-27T00:43:41.574Z,41.80
2018-03-27T00:44:41.557Z,39.50
2018-03-27T00:45:41.548Z,38.40
2018-03-27T00:46:41.529Z,36.80
2018-03-27T00:47:41.514Z,34.80
2018-03-27T00:48:41.502Z,31.60
2018-03-27T00:49:41.489Z,35.20
2018-03-27T00:50:41.475Z,37.70
2018-03-27T00:51:41.461Z,36.60
2018-03-27T00:52:41.446Z,34.30
2018-03-27T00:53:41.434Z,35.20
2018-03-27T00:54:41.419Z,37.10
2018-03-27T00:55:41.409Z,35.80
2018-03-27T00:56:41.394Z,35.90
2018-03-27T00:57:41.377Z,34.70
2018-03-27T00:58:41.365Z,35.60
2018-03-27T00:59:41.351Z,36.00
2018-03-27T01:00:41.336Z,34.40
2018-03-27T01:01:41.323Z,36.10
2018-03-27T01:02:41.315Z,35.30
2018-03-27T01:03:41.301Z,35.00
2018-03-27T01:04:41.282Z,36.10
2018-03-27T01:05:41.269Z,35.00
2018-03-27T01:06:41.261Z,34.70
2018-03-27T01:07:41.242Z,36.60
2018-03-27T01:08:41.229Z,37.00
2018-03-27T01:09:41.214Z,37.70
2018-03-27T01:10:41.201Z,38.00
2018-03-27T01:11:41.186Z,35.40
2018-03-27T01:12:41.172Z,36.50
2018-03-27T01:13:41.166Z,35.90
2018-03-27T01:14:41.153Z,36.90
2018-03-27T01:15:41.138Z,35.80
2018-03-27T01:16:41.117Z,37.40
2018-03-27T01:17:41.105Z,36.20
2018-03-27T01:18:41.095Z,37.50
2018-03-27T01:19:41.077Z,38.30
2018-03-27T01:20:41.069Z,38.90
2018-03-27T01:21:41.049Z,39.30
2018-03-27T01:22:41.041Z,39.00
2018-03-27T01:23:41.022Z,37.30
2018-03-27T01:24:41.012Z,38.10
2018-03-27T01:25:40.994Z,38.90
2018-03-27T01:26:40.979Z,39.80
2018-03-27T01:27:40.973Z,41.30
2018-03-27T01:28:40.954Z,38.90
2018-03-27T01:29:40.939Z,37.60
2018-03-27T01:30:40.924Z,38.10
2018-03-27T01:31:40.920Z,40.10
2018-03-27T01:32:40.907Z,41.30
2018-03-27T01:33:40.884Z,40.50
2018-03-27T01:34:40.876Z,40.70
2018-03-27T01:35:40.864Z,41.50
2018-03-27T01:36:40.845Z,40.20
2018-03-27T01:37:40.830Z,40.50
2018-03-27T01:38:40.816Z,39.60
2018-03-27T01:39:40.809Z,36.80
2018-03-27T01:40:40.788Z,37.80
2018-03-27T01:41:40.775Z,39.20
2018-03-27T01:42:40.762Z,36.60
2018-03-27T01:43:40.747Z,38.80
2018-03-27T01:44:40.734Z,37.20
2018-03-27T01:45:40.722Z,38.50
2018-03-27T01:46:40.708Z,39.70
2018-03-27T01:47:40.693Z,38.40
2018-03-27T01:48:40.679Z,37.90
2018-03-27T01:49:40.669Z,40.30
2018-03-27T01:50:40.659Z,40.20
2018-03-27T01:51:40.642Z,39.80
2018-03-27T01:52:40.629Z,42.10
2018-03-27T01:53:40.615Z,42.20
2018-03-27T01:54:40.606Z,41.40
2018-03-27T01:55:40.582Z,40.80
2018-03-27T01:56:40.573Z,42.10
2018-03-27T01:57:40.554Z,42.20
2018-03-27T01:58:40.546Z,41.10
2018-03-27T01:59:40.526Z,42.10
2018-03-27T02:00:40.513Z,41.00
2018-03-27T02:01:40.498Z,41.40
2018-03-27T02:02:40.484Z,42.60
2018-03-27T02:03:40.470Z,40.00
2018-03-27T02:04:40.465Z,40.70
2018-03-27T02:05:40.450Z,39.60
2018-03-27T02:06:40.429Z,41.30
2018-03-27T02:07:40.415Z,42.00
2018-03-27T02:08:40.402Z,43.50
2018-03-27T02:09:40.388Z,42.90
2018-03-27T02:10:40.376Z,43.90
2018-03-27T02:11:40.376Z,41.20
2018-03-27T02:12:40.353Z,41.80
2018-03-27T02:13:40.332Z,41.20
2018-03-27T02:14:40.320Z,41.00
2018-03-27T02:15:40.306Z,42.40
2018-03-27T02:16:40.297Z,41.60
2018-03-27T02:17:40.277Z,41.60
2018-03-27T02:18:40.270Z,41.40
2018-03-27T02:19:40.256Z,42.60
2018-03-27T02:20:40.236Z,44.70
2018-03-27T02:21:40.226Z,42.70
2018-03-27T02:22:40.212Z,41.30
2018-03-27T02:23:40.197Z,41.90
2018-03-27T02:24:40.184Z,41.30
2018-03-27T02:25:40.175Z,40.50
2018-03-27T02:26:40.156Z,40.50
2018-03-27T02:27:40.140Z,40.60
2018-03-27T02:28:40.125Z,41.80
2018-03-27T02:29:40.112Z,41.90
2018-03-27T02:30:40.099Z,43.20
2018-03-27T02:31:40.091Z,42.10
2018-03-27T02:32:40.076Z,44.50
2018-03-27T02:33:40.057Z,44.10
2018-03-27T02:34:40.052Z,43.40
2018-03-27T02:35:40.036Z,40.00
2018-03-27T02:36:40.021Z,42.00
2018-03-27T02:37:40.008Z,41.00
2018-03-27T02:38:40.007Z,43.50
2018-03-27T02:39:39.975Z,40.50
2018-03-27T02:40:39.968Z,43.70
2018-03-27T02:41:39.956Z,40.80
2018-03-27T02:42:39.932Z,40.60
2018-03-27T02:43:39.922Z,41.00
2018-03-27T02:44:39.903Z,41.60
2018-03-27T02:45:39.897Z,43.40
2018-03-27T02:46:39.875Z,43.80
2018-03-27T02:47:39.867Z,41.90
2018-03-27T02:48:39.852Z,44.10
2018-03-27T02:49:39.838Z,43.20
2018-03-27T02:50:39.816Z,43.10
2018-03-27T02:51:39.804Z,43.40
2018-03-27T02:52:39.789Z,44.50
2018-03-27T02:53:39.781Z,42.20
2018-03-27T02:54:39.792Z,42.40
2018-03-27T02:55:39.746Z,39.40
2018-03-27T02:56:39.735Z,41.30
2018-03-27T02:57:39.719Z,40.80
2018-03-27T02:58:39.703Z,40.70
2018-03-27T02:59:39.691Z,40.60
2018-03-27T03:00:39.678Z,42.50
2018-03-27T03:01:39.673Z,42.80
2018-03-27T03:02:39.648Z,41.10
2018-03-27T03:03:39.637Z,41.30
2018-03-27T03:04:39.627Z,41.00
2018-03-27T03:05:39.606Z,39.50
2018-03-27T03:06:39.599Z,38.80
2018-03-27T03:07:39.593Z,41.10
2018-03-27T03:08:39.563Z,43.10
2018-03-27T03:09:39.554Z,40.40
2018-03-27T03:10:39.546Z,41.20
2018-03-27T03:11:39.522Z,41.80
2018-03-27T03:12:39.506Z,43.90
2018-03-27T03:13:39.500Z,43.10
2018-03-27T03:14:39.480Z,40.00
2018-03-27T03:15:39.467Z,40.50
2018-03-27T03:16:39.462Z,41.40
2018-03-27T03:17:39.437Z,39.20
2018-03-27T03:18:39.422Z,40.70
2018-03-27T03:19:39.415Z,43.20
2018-03-27T03:20:39.400Z,43.20
2018-03-27T03:21:39.382Z,40.50
2018-03-27T03:22:39.368Z,45.00
2018-03-27T03:23:39.352Z,42.80
2018-03-27T03:24:39.340Z,43.50
2018-03-27T03:25:39.327Z,44.00
2018-03-27T03:26:39.310Z,45.10
2018-03-27T03:27:39.296Z,42.20
2018-03-27T03:28:39.284Z,46.30
2018-03-27T03:29:39.275Z,44.50
2018-03-27T03:30:39.263Z,45.70
2018-03-27T03:31:39.243Z,42.90
2018-03-27T03:32:39.234Z,43.70
2018-03-27T03:33:39.224Z,42.40
2018-03-27T03:34:39.217Z,44.60
2018-03-27T03:35:39.190Z,44.40
2018-03-27T03:36:39.180Z,42.90
2018-03-27T03:37:39.159Z,42.20
2018-03-27T03:38:39.143Z,44.60
2018-03-27T03:39:39.129Z,41.80
2018-03-27T03:40:39.120Z,42.60
2018-03-27T03:41:39.104Z,41.00
2018-03-27T03:42:39.093Z,43.00
2018-03-27T03:43:39.072Z,44.20
2018-03-27T03:44:39.057Z,44.50
2018-03-27T03:45:39.045Z,44.20
2018-03-27T03:46:39.029Z,42.10
2018-03-27T03:47:39.022Z,46.00
2018-03-27T03:48:39.007Z,45.20
2018-03-27T03:49:38.987Z,45.10
2018-03-27T03:50:38.984Z,45.20
2018-03-27T03:51:38.960Z,43.40
2018-03-27T03:52:38.945Z,45.00
2018-03-27T03:53:38.933Z,42.90
2018-03-27T03:54:38.927Z,41.90
2018-03-27T03:55:38.904Z,43.90
2018-03-27T03:56:38.893Z,44.20
2018-03-27T03:57:38.877Z,44.80
2018-03-27T03:58:38.861Z,44.80
2018-03-27T03:59:38.853Z,43.60
2018-03-27T04:00:38.836Z,45.90
2018-03-27T04:01:38.819Z,44.30
2018-03-27T04:02:38.809Z,44.90
2018-03-27T04:03:38.799Z,46.60
2018-03-27T04:04:38.784Z,47.10
2018-03-27T04:05:38.773Z,46.00
2018-03-27T04:06:38.748Z,46.10
2018-03-27T04:07:38.735Z,46.90
2018-03-27T04:08:38.725Z,46.70
2018-03-27T04:09:38.711Z,44.70
2018-03-27T04:10:38.692Z,47.00
2018-03-27T04:11:38.680Z,47.30
2018-03-27T04:12:38.666Z,47.60
2018-03-27T04:13:38.659Z,47.00
2018-03-27T04:14:38.636Z,46.70
2018-03-27T04:15:38.624Z,45.50
2018-03-27T04:16:38.609Z,47.80
2018-03-27T04:17:38.599Z,46.90
2018-03-27T04:18:38.582Z,49.00
2018-03-27T04:19:38.566Z,48.10
2018-03-27T04:20:38.563Z,47.20
2018-03-27T04:21:38.539Z,45.80
2018-03-27T04:22:38.525Z,47.50
2018-03-27T04:23:38.511Z,49.10
2018-03-27T04:24:38.505Z,48.70
2018-03-27T04:25:38.488Z,47.40
2018-03-27T04:26:38.473Z,48.20
2018-03-27T04:27:38.462Z,48.30
2018-03-27T04:28:38.449Z,48.00
2018-03-27T04:29:38.444Z,48.10
2018-03-27T04:30:38.422Z,50.20
2018-03-27T04:31:38.420Z,50.00
2018-03-27T04:32:38.389Z,48.20
2018-03-27T04:33:38.383Z,47.60
2018-03-27T04:34:38.358Z,44.90
2018-03-27T04:35:38.352Z,43.80
2018-03-27T04:36:38.343Z,47.50
2018-03-27T04:37:38.325Z,44.90
2018-03-27T04:38:38.301Z,46.50
2018-03-27T04:39:38.293Z,45.90
2018-03-27T04:40:38.285Z,46.90
2018-03-27T04:41:38.267Z,48.00
2018-03-27T04:42:38.249Z,45.70
2018-03-27T04:43:38.238Z,44.80
2018-03-27T04:44:38.220Z,45.20
2018-03-27T04:45:38.210Z,44.70
2018-03-27T04:46:38.193Z,44.30
2018-03-27T04:47:38.175Z,47.90
2018-03-27T04:48:38.159Z,46.00
2018-03-27T04:49:38.146Z,43.60
2018-03-27T04:50:38.140Z,42.10
2018-03-27T04:51:38.118Z,46.10
2018-03-27T04:52:38.106Z,46.00
2018-03-27T04:53:38.092Z,48.10
2018-03-27T04:54:38.086Z,46.60
2018-03-27T04:55:38.063Z,44.40
2018-03-27T04:56:38.053Z,46.20
2018-03-27T04:57:38.033Z,46.60
2018-03-27T04:58:38.025Z,45.30
2018-03-27T04:59:38.013Z,47.20
2018-03-27T05:00:37.989Z,46.20
2018-03-27T05:01:37.976Z,48.30
2018-03-27T05:02:37.967Z,47.80
2018-03-27T05:03:37.950Z,47.90
2018-03-27T05:04:37.940Z,46.40
2018-03-27T05:05:37.925Z,48.10
2018-03-27T05:06:37.906Z,47.80
2018-03-27T05:07:37.892Z,46.00
2018-03-27T05:08:37.883Z,45.30
2018-03-27T05:09:37.864Z,46.80
2018-03-27T05:10:37.850Z,46.90
2018-03-27T05:11:37.835Z,48.70
2018-03-27T05:12:37.836Z,46.90
2018-03-27T05:13:37.808Z,47.00
2018-03-27T05:14:37.798Z,47.70
2018-03-27T05:15:37.785Z,47.90
2018-03-27T05:16:37.770Z,48.00
2018-03-27T05:17:37.751Z,47.90
2018-03-27T05:18:37.736Z,47.50
2018-03-27T05:19:37.724Z,46.00
2018-03-27T05:20:37.712Z,47.60
2018-03-27T05:21:37.695Z,46.10
2018-03-27T05:22:37.685Z,48.10
2018-03-27T05:23:37.666Z,46.60
2018-03-27T05:24:37.659Z,46.00
2018-03-27T05:25:37.644Z,45.10
2018-03-27T05:26:37.631Z,47.10
2018-03-27T05:27:37.616Z,48.20
2018-03-27T05:28:37.594Z,49.20
2018-03-27T05:29:37.593Z,50.60
2018-03-27T05:30:37.576Z,47.90
2018-03-27T05:31:37.551Z,48.70
2018-03-27T05:32:37.542Z,46.00
2018-03-27T05:33:37.531Z,46.30
2018-03-27T05:34:37.514Z,46.80
2018-03-27T05:35:37.496Z,46.60
2018-03-27T05:36:37.482Z,48.00
2018-03-27T05:37:37.468Z,45.10
2018-03-27T05:38:37.470Z,47.20
2018-03-27T05:39:37.445Z,48.00
2018-03-27T05:40:37.426Z,47.90
2018-03-27T05:41:37.413Z,46.30
2018-03-27T05:42:37.397Z,44.80
2018-03-27T05:43:37.387Z,45.10
2018-03-27T05:44:37.372Z,45.40
2018-03-27T05:45:37.356Z,45.40
2018-03-27T05:46:37.346Z,45.70
2018-03-27T05:47:37.329Z,47.40
2018-03-27T05:48:37.314Z,46.50
2018-03-27T05:49:37.312Z,47.10
2018-03-27T05:50:37.297Z,46.90
2018-03-27T05:51:37.288Z,48.50
2018-03-27T05:52:37.266Z,47.70
2018-03-27T05:53:37.257Z,47.80
2018-03-27T05:54:37.231Z,46.10
2018-03-27T05:55:37.225Z,47.70
2018-03-27T05:56:37.204Z,48.90
2018-03-27T05:57:37.191Z,47.50
2018-03-27T05:58:37.180Z,50.30
2018-03-27T05:59:37.165Z,49.50
2018-03-27T06:00:37.148Z,49.50
2018-03-27T06:01:37.150Z,47.60
2018-03-27T06:02:37.124Z,48.00
2018-03-27T06:03:37.112Z,49.20
2018-03-27T06:04:37.097Z,50.40
2018-03-27T06:05:37.079Z,47.30
2018-03-27T06:06:37.071Z,45.60
2018-03-27T06:07:37.049Z,47.80
2018-03-27T06:08:37.036Z,46.80
2018-03-27T06:09:37.029Z,45.90
2018-03-27T06:10:37.016Z,46.80
2018-03-27T06:11:36.999Z,45.70
2018-03-27T06:12:36.990Z,49.70
2018-03-27T06:13:36.968Z,46.70
2018-03-27T06:14:36.951Z,47.20
2018-03-27T06:15:36.944Z,47.20
2018-03-27T06:16:36.936Z,47.30
2018-03-27T06:17:36.919Z,49.40
2018-03-27T06:18:36.979Z,50.00
2018-03-27T06:19:36.901Z,49.30
2018-03-27T06:20:36.879Z,44.90
2018-03-27T06:21:36.868Z,46.00
2018-03-27T06:22:36.843Z,43.10
2018-03-27T06:23:36.833Z,45.30
2018-03-27T06:24:36.816Z,45.20
2018-03-27T06:25:36.806Z,46.70
2018-03-27T06:26:36.788Z,45.80
2018-03-27T06:27:36.787Z,45.90
2018-03-27T06:28:36.762Z,44.90
2018-03-27T06:29:36.752Z,42.70
2018-03-27T06:30:36.732Z,45.80
2018-03-27T06:31:36.720Z,46.80
2018-03-27T06:32:36.716Z,48.50
2018-03-27T06:33:36.693Z,49.50
2018-03-27T06:34:36.680Z,48.30
2018-03-27T06:35:36.665Z,47.10
2018-03-27T06:36:36.656Z,47.20
2018-03-27T06:37:36.642Z,49.50
2018-03-27T06:38:36.632Z,48.50
2018-03-27T06:39:36.611Z,49.70
2018-03-27T06:40:36.596Z,46.90
2018-03-27T06:41:36.594Z,48.20
2018-03-27T06:42:36.569Z,47.50
2018-03-27T06:43:36.558Z,48.20
2018-03-27T06:44:36.598Z,47.10
2018-03-27T06:45:36.529Z,47.40
2018-03-27T06:46:36.515Z,47.50
2018-03-27T06:47:36.512Z,50.20
2018-03-27T06:48:36.491Z,47.20
2018-03-27T06:49:36.476Z,48.10
2018-03-27T06:50:36.466Z,47.50
2018-03-27T06:51:36.455Z,45.80
2018-03-27T06:52:36.435Z,48.80
2018-03-27T06:53:36.428Z,47.40
2018-03-27T06:54:36.407Z,48.50
2018-03-27T06:55:36.402Z,46.00
2018-03-27T06:56:36.381Z,47.40
2018-03-27T06:57:36.375Z,47.10
2018-03-27T06:58:36.360Z,47.50
2018-03-27T06:59:36.343Z,46.00
2018-03-27T07:00:36.329Z,46.00
2018-03-27T07:01:36.316Z,45.20
2018-03-27T07:02:36.343Z,47.00
2018-03-27T07:03:36.295Z,46.30
2018-03-27T07:04:36.320Z,46.50
2018-03-27T07:05:36.370Z,44.70
2018-03-27T07:06:36.259Z,46.60
2018-03-27T07:07:36.237Z,41.70
2018-03-27T07:08:36.239Z,43.00
2018-03-27T07:09:36.214Z,44.40
2018-03-27T07:10:36.233Z,46.90
2018-03-27T07:11:36.185Z,44.00
2018-03-27T07:12:36.203Z,44.40
2018-03-27T07:13:36.183Z,43.70
2018-03-27T07:14:36.152Z,44.40
2018-03-27T07:15:36.140Z,45.30
2018-03-27T07:16:36.135Z,43.80
2018-03-27T07:17:36.112Z,44.50
2018-03-27T07:18:36.133Z,44.60
2018-03-27T07:19:36.101Z,44.90
2018-03-27T07:20:36.066Z,43.90
2018-03-27T07:21:36.055Z,42.70
2018-03-27T07:22:36.040Z,40.60
2018-03-27T07:23:36.036Z,43.30
2018-03-27T07:24:36.014Z,41.00
2018-03-27T07:25:36.001Z,42.10
2018-03-27T07:26:35.987Z,42.40
2018-03-27T07:27:35.980Z,39.70
2018-03-27T07:28:35.962Z,38.80
2018-03-27T07:29:35.952Z,39.10
2018-03-27T07:30:35.937Z,38.10
2018-03-27T07:31:35.924Z,38.50
2018-03-27T07:32:35.918Z,36.80
2018-03-27T07:33:35.906Z,39.30
2018-03-27T07:34:35.883Z,38.30
2018-03-27T07:35:35.874Z,37.60
2018-03-27T07:36:35.863Z,36.60
2018-03-27T07:37:35.846Z,38.30
2018-03-27T07:38:35.838Z,35.90
2018-03-27T07:39:35.820Z,36.20
2018-03-27T07:40:35.816Z,36.40
2018-03-27T07:41:35.801Z,36.70
2018-03-27T07:42:35.789Z,36.10
2018-03-27T07:43:35.773Z,34.90
2018-03-27T07:44:35.771Z,36.80
2018-03-27T07:45:35.744Z,38.40
2018-03-27T07:46:35.732Z,38.50
2018-03-27T07:47:35.721Z,37.70
2018-03-27T07:48:35.713Z,38.60
2018-03-27T07:49:35.763Z,35.80
2018-03-27T07:50:35.681Z,38.90
2018-03-27T07:51:35.671Z,35.60
2018-03-27T07:52:35.658Z,33.60
2018-03-27T07:53:35.646Z,34.60
2018-03-27T07:54:35.631Z,35.90
2018-03-27T07:55:35.621Z,35.20
2018-03-27T07:56:35.607Z,36.40
2018-03-27T07:57:35.595Z,38.30
2018-03-27T07:58:35.589Z,36.60
2018-03-27T07:59:35.569Z,36.20
2018-03-27T08:00:35.557Z,35.30
2018-03-27T08:01:35.548Z,35.80
2018-03-27T08:02:35.534Z,36.70
2018-03-27T08:03:35.577Z,31.60
2018-03-27T08:04:35.507Z,33.60
2018-03-27T08:05:35.503Z,34.50
2018-03-27T08:06:35.491Z,34.20
2018-03-27T08:07:35.473Z,35.20
2018-03-27T08:08:35.464Z,35.10
2018-03-27T08:09:35.450Z,35.30
2018-03-27T08:10:35.438Z,34.70
2018-03-27T08:11:35.429Z,34.60
2018-03-27T08:12:35.414Z,35.30
2018-03-27T08:13:35.404Z,34.00
2018-03-27T08:14:35.394Z,33.50
2018-03-27T08:15:35.378Z,34.10
2018-03-27T08:16:35.373Z,34.30
2018-03-27T08:17:35.360Z,34.40
2018-03-27T08:18:35.342Z,34.80
2018-03-27T08:19:35.330Z,34.70
2018-03-27T08:20:35.320Z,36.10
2018-03-27T08:21:35.355Z,34.70
2018-03-27T08:22:35.296Z,34.30
2018-03-27T08:23:35.290Z,32.20
2018-03-27T08:24:35.275Z,34.80
2018-03-27T08:25:35.268Z,33.30
2018-03-27T08:26:35.257Z,33.90
2018-03-27T08:27:35.248Z,33.60
2018-03-27T08:28:35.229Z,34.60
2018-03-27T08:29:35.219Z,35.90
2018-03-27T08:30:35.212Z,33.80
2018-03-27T08:31:35.195Z,34.50
2018-03-27T08:32:35.183Z,33.30
2018-03-27T08:33:35.173Z,35.10
2018-03-27T08:34:35.166Z,34.20
2018-03-27T08:35:35.152Z,34.60
2018-03-27T08:36:35.139Z,32.30
2018-03-27T08:37:35.130Z,33.20
2018-03-27T08:38:35.119Z,35.20
2018-03-27T08:39:35.109Z,34.20
2018-03-27T08:40:35.097Z,35.10
2018-03-27T08:41:35.096Z,33.90
2018-03-27T08:42:35.078Z,35.40
2018-03-27T08:43:35.062Z,32.90
2018-03-27T08:44:35.057Z,34.10
2018-03-27T08:45:35.046Z,33.90
2018-03-27T08:46:35.035Z,34.60
2018-03-27T08:47:35.020Z,35.40
2018-03-27T08:48:35.010Z,35.10
2018-03-27T08:49:34.999Z,34.50
2018-03-27T08:50:34.986Z,34.60
2018-03-27T08:51:34.976Z,34.50
2018-03-27T08:52:34.966Z,34.50
2018-03-27T08:53:34.954Z,34.00
2018-03-27T08:54:34.941Z,34.60
2018-03-27T08:55:34.932Z,33.50
2018-03-27T08:56:34.926Z,35.50
2018-03-27T08:57:34.919Z,33.00
2018-03-27T08:58:34.904Z,32.10
2018-03-27T08:59:34.888Z,32.10
2018-03-27T09:00:34.884Z,32.60
2018-03-27T09:01:34.872Z,32.50
2018-03-27T09:02:34.862Z,33.10
2018-03-27T09:03:34.848Z,34.10
2018-03-27T09:04:34.837Z,35.10
2018-03-27T09:05:34.824Z,34.50
2018-03-27T09:06:34.819Z,32.70
2018-03-27T09:07:34.808Z,32.40
2018-03-27T09:08:34.797Z,33.00
2018-03-27T09:09:34.780Z,32.50
2018-03-27T09:10:34.772Z,32.80
2018-03-27T09:11:34.765Z,34.00
2018-03-27T09:12:34.755Z,32.70
2018-03-27T09:13:34.738Z,33.00
2018-03-27T09:14:34.726Z,34.20
2018-03-27T09:15:34.717Z,33.80
2018-03-27T09:16:34.706Z,32.70
2018-03-27T09:17:34.694Z,32.70
2018-03-27T09:18:34.686Z,33.10
2018-03-27T09:19:34.674Z,33.10
2018-03-27T09:20:34.665Z,31.70
2018-03-27T09:21:34.651Z,32.00
2018-03-27T09:22:34.640Z,32.60
2018-03-27T09:23:34.631Z,32.70
2018-03-27T09:24:34.625Z,31.70
2018-03-27T09:25:34.609Z,31.30
2018-03-27T09:26:34.602Z,32.70
2018-03-27T09:27:34.587Z,32.20
2018-03-27T09:28:34.616Z,30.70
2018-03-27T09:29:34.567Z,30.20
2018-03-27T09:30:34.563Z,31.40
2018-03-27T09:31:34.545Z,31.40
2018-03-27T09:32:34.537Z,31.20
2018-03-27T09:33:34.527Z,29.80
2018-03-27T09:34:34.514Z,30.50
2018-03-27T09:35:34.508Z,30.80
2018-03-27T09:36:34.495Z,29.70
2018-03-27T09:37:34.488Z,30.50
2018-03-27T09:38:34.474Z,29.70
2018-03-27T09:39:34.464Z,30.60
2018-03-27T09:40:34.457Z,29.50
2018-03-27T09:41:34.446Z,29.90
2018-03-27T09:42:34.434Z,29.50
2018-03-27T09:43:34.437Z,30.30
2018-03-27T09:44:34.423Z,29.00
2018-03-27T09:45:34.442Z,30.10
2018-03-27T09:46:34.394Z,28.70
2018-03-27T09:47:34.387Z,28.00
2018-03-27T09:48:34.381Z,28.40
2018-03-27T09:49:34.367Z,27.40
2018-03-27T09:50:34.354Z,28.50
2018-03-27T09:51:34.345Z,28.90
2018-03-27T09:52:34.336Z,28.80
2018-03-27T09:53:34.325Z,27.50
2018-03-27T09:54:34.317Z,26.50
2018-03-27T09:55:34.346Z,26.50
2018-03-27T09:56:34.303Z,26.60
2018-03-27T09:57:34.292Z,27.90
2018-03-27T09:58:34.276Z,26.70
2018-03-27T09:59:34.268Z,26.30
2018-03-27T10:00:34.262Z,26.30
2018-03-27T10:01:34.248Z,25.90
2018-03-27T10:02:34.243Z,26.90
2018-03-27T10:03:34.232Z,26.00
2018-03-27T10:04:34.220Z,25.20
2018-03-27T10:05:34.208Z,25.10
2018-03-27T10:06:34.194Z,25.00
2018-03-27T10:07:34.187Z,26.20
2018-03-27T10:08:34.175Z,26.70
2018-03-27T10:09:34.171Z,25.60
2018-03-27T10:10:34.154Z,24.20
2018-03-27T10:11:34.146Z,26.80
2018-03-27T10:12:34.137Z,24.40
2018-03-27T10:13:34.128Z,25.10
2018-03-27T10:14:34.119Z,26.90
2018-03-27T10:15:34.104Z,24.70
2018-03-27T10:16:34.102Z,26.00
2018-03-27T10:17:34.086Z,26.60
2018-03-27T10:18:34.078Z,25.60
2018-03-27T10:19:34.064Z,26.90
2018-03-27T10:20:34.051Z,25.60
2018-03-27T10:21:34.050Z,26.70
2018-03-27T10:22:34.032Z,25.90
2018-03-27T10:23:34.028Z,26.10
2018-03-27T10:24:34.011Z,27.00
2018-03-27T10:25:34.000Z,26.70
2018-03-27T10:26:33.994Z,24.40
2018-03-27T10:27:33.979Z,26.20
2018-03-27T10:28:33.975Z,24.20
2018-03-27T10:29:33.960Z,24.30
2018-03-27T10:30:33.948Z,23.70
2018-03-27T10:31:33.937Z,24.20
2018-03-27T10:32:33.926Z,24.50
2018-03-27T10:33:33.923Z,25.00
2018-03-27T10:34:33.905Z,25.40
2018-03-27T10:35:33.895Z,25.30
2018-03-27T10:36:33.883Z,27.20
2018-03-27T10:37:33.874Z,27.10
2018-03-27T10:38:33.921Z,27.10
2018-03-27T10:39:33.853Z,27.70
2018-03-27T10:40:33.845Z,27.50
2018-03-27T10:41:33.830Z,25.70
2018-03-27T10:42:33.820Z,27.10
2018-03-27T10:43:33.813Z,27.90
2018-03-27T10:44:33.802Z,28.20
2018-03-27T10:45:33.792Z,27.20
2018-03-27T10:46:33.790Z,27.10
2018-03-27T10:47:33.765Z,26.40
2018-03-27T10:48:33.755Z,26.90
2018-03-27T10:49:33.746Z,27.10
2018-03-27T10:50:33.733Z,26.30
2018-03-27T10:51:33.728Z,27.20
2018-03-27T10:52:33.716Z,26.90
2018-03-27T10:53:33.710Z,26.70
2018-03-27T10:54:33.691Z,25.50
2018-03-27T10:55:33.679Z,25.40
2018-03-27T10:56:33.677Z,24.40
2018-03-27T10:57:33.659Z,25.90
2018-03-27T10:58:33.653Z,26.30
2018-03-27T10:59:33.659Z,25.20
2018-03-27T11:00:33.635Z,24.10
2018-03-27T11:01:33.621Z,25.30
2018-03-27T11:02:33.605Z,25.60
2018-03-27T11:03:33.603Z,27.30
2018-03-27T11:04:33.585Z,25.50
2018-03-27T11:05:33.575Z,27.40
2018-03-27T11:06:33.564Z,25.60
2018-03-27T11:07:33.555Z,25.10
2018-03-27T11:08:33.543Z,25.50
2018-03-27T11:09:33.540Z,25.90
2018-03-27T11:10:33.523Z,25.70
2018-03-27T11:11:33.511Z,24.80
2018-03-27T11:12:33.508Z,25.50
2018-03-27T11:13:33.491Z,25.80
2018-03-27T11:14:33.480Z,23.70
2018-03-27T11:15:33.469Z,24.90
2018-03-27T11:16:33.461Z,25.50
2018-03-27T11:17:33.482Z,26.30
2018-03-27T11:18:33.446Z,25.80
2018-03-27T11:19:33.436Z,25.70
2018-03-27T11:20:33.417Z,24.80
2018-03-27T11:21:33.412Z,24.10
2018-03-27T11:22:33.399Z,24.50
2018-03-27T11:23:33.390Z,24.60
2018-03-27T11:24:33.377Z,25.10
2018-03-27T11:25:33.366Z,23.50
2018-03-27T11:26:33.357Z,23.30
2018-03-27T11:27:33.343Z,25.40
2018-03-27T11:28:33.332Z,24.20
2018-03-27T11:29:33.336Z,25.30
2018-03-27T11:30:33.311Z,24.40
2018-03-27T11:31:33.303Z,24.60
2018-03-27T11:32:33.301Z,25.10
2018-03-27T11:33:33.283Z,22.40
2018-03-27T11:34:33.271Z,22.70
2018-03-27T11:35:33.260Z,21.90
2018-03-27T11:36:33.252Z,21.60
2018-03-27T11:37:33.239Z,20.40
2018-03-27T11:38:33.240Z,21.10
2018-03-27T11:39:33.225Z,21.70
2018-03-27T11:40:33.210Z,21.60
2018-03-27T11:41:33.205Z,22.40
2018-03-27T11:42:33.191Z,23.10
2018-03-27T11:43:33.181Z,22.60
2018-03-27T11:44:33.169Z,22.30
2018-03-27T11:45:33.161Z,22.60
2018-03-27T11:46:33.151Z,21.70
2018-03-27T11:47:33.140Z,22.20
2018-03-27T11:48:33.136Z,22.10
2018-03-27T11:49:33.120Z,21.30
2018-03-27T11:50:33.112Z,22.00
2018-03-27T11:51:33.100Z,22.10
2018-03-27T11:52:33.091Z,20.60
2018-03-27T11:53:33.088Z,21.10
2018-03-27T11:54:33.108Z,20.10
2018-03-27T11:55:33.065Z,20.20
2018-03-27T11:56:33.071Z,20.50
2018-03-27T11:57:33.041Z,21.40
2018-03-27T11:58:33.029Z,21.80
2018-03-27T11:59:33.021Z,19.50
2018-03-27T12:00:33.015Z,20.80
2018-03-27T12:01:33.020Z,20.00
2018-03-27T12:02:32.996Z,19.20
2018-03-27T12:03:32.982Z,21.60
2018-03-27T12:04:32.969Z,19.60
2018-03-27T12:05:32.966Z,19.60
2018-03-27T12:06:32.957Z,19.60
2018-03-27T12:07:32.942Z,19.80
2018-03-27T12:08:32.931Z,20.60
2018-03-27T12:09:32.923Z,19.10
2018-03-27T12:10:32.916Z,19.60
2018-03-27T12:11:32.905Z,20.60
2018-03-27T12:12:32.899Z,21.40
2018-03-27T12:13:32.886Z,19.80
2018-03-27T12:14:32.869Z,20.40
2018-03-27T12:15:32.865Z,19.80
2018-03-27T12:16:32.850Z,20.10
2018-03-27T12:17:32.840Z,19.80
2018-03-27T12:18:32.832Z,19.90
2018-03-27T12:19:32.821Z,19.90
2018-03-27T12:20:32.822Z,19.50
2018-03-27T12:21:32.803Z,19.80
2018-03-27T12:22:32.795Z,19.10
2018-03-27T12:23:32.781Z,18.90
2018-03-27T12:24:32.776Z,17.70
2018-03-27T12:25:32.767Z,17.40
2018-03-27T12:26:32.753Z,17.50
2018-03-27T12:27:32.743Z,17.60
2018-03-27T12:28:32.734Z,18.00
2018-03-27T12:29:32.726Z,18.80
2018-03-27T12:30:32.714Z,18.30
2018-03-27T12:31:32.705Z,18.20
2018-03-27T12:32:32.699Z,18.90
2018-03-27T12:33:32.694Z,17.70
2018-03-27T12:34:32.685Z,17.30
2018-03-27T12:35:32.670Z,17.50
2018-03-27T12:36:32.665Z,17.60
2018-03-27T12:37:32.651Z,17.40
2018-03-27T12:38:32.642Z,17.80
2018-03-27T12:39:32.638Z,17.90
2018-03-27T12:40:32.623Z,17.60
2018-03-27T12:41:32.641Z,17.90
2018-03-27T12:42:32.604Z,18.90
2018-03-27T12:43:32.609Z,17.40
2018-03-27T12:44:32.592Z,18.30
2018-03-27T12:45:32.581Z,18.20
2018-03-27T12:46:32.572Z,17.50
2018-03-27T12:47:32.564Z,18.60
2018-03-27T12:48:32.555Z,19.00
2018-03-27T12:49:32.548Z,16.70
2018-03-27T12:50:32.535Z,17.50
2018-03-27T12:51:32.528Z,17.60
2018-03-27T12:52:32.520Z,16.80